utilisation pie
utilisation bar
humidity graph
temperature graph
Station id: aae83c for 2 days

start:   stop:  

day time in temp out temp in RH out RH H quota rule action
2020-01-18 00:09:50 8.6 4.2 65 93 107 h 0
2020-01-18 00:40:03 8.6 4.2 65 94 109 h 0
2020-01-18 01:10:15 8.4 4.3 65 94 110 h 0
2020-01-18 01:40:27 8.5 4.5 65 93 110 h 0
2020-01-18 02:10:39 8.5 4.5 65 93 111 h 0
2020-01-18 02:40:51 8.4 4.5 65 93 111 h 0
2020-01-18 03:11:03 8.4 4.5 65 93 110 h 0
2020-01-18 03:41:15 8.4 4.4 65 93 110 h 0
2020-01-18 04:11:27 8.3 4.4 65 93 110 h 0
2020-01-18 04:41:39 8.3 4.5 65 93 110 h 0
2020-01-18 05:11:51 8.3 4.5 65 93 110 h 0
2020-01-18 05:42:03 8.3 4.5 65 93 110 h 0
2020-01-18 06:12:15 8.3 4.4 66 93 109 h 0
2020-01-18 06:42:30 8.4 4.2 65 93 108 h 0
2020-01-18 07:12:42 8.3 4.1 66 93 107 h 0
2020-01-18 07:42:54 8.4 4.1 65 92 106 h 0
2020-01-18 08:13:06 8.3 4.1 66 93 107 h 0
2020-01-18 08:43:18 8.4 4.1 65 93 107 h 0
2020-01-18 09:13:30 8.4 4.2 65 93 107 h 0
2020-01-18 09:43:42 8.4 4.4 66 93 109 h 0
2020-01-18 10:13:54 9.2 4.7 63 93 110 h 0
2020-01-18 10:44:11 9.5 4.9 62 93 110 h 0
2020-01-18 11:14:23 8.8 5.1 64 93 113 h 0
2020-01-18 11:44:35 8.7 5.3 65 92 114 h 0
2020-01-18 12:14:48 8.6 5.5 65 92 116 h 0
2020-01-18 12:45:00 8.5 5.8 65 99 127 H 0
2020-01-18 13:15:01 8.6 5.9 65 99 128 H 0
2020-01-18 13:45:02 8.6 6.2 65 91 121 h 0
2020-01-18 14:15:14 8.6 6.2 65 92 121 h 0
2020-01-18 14:45:26 8.6 6.3 65 92 122 h 0
2020-01-18 15:15:38 8.6 6.1 65 91 119 h 0
2020-01-18 15:45:50 8.6 5.8 65 91 116 h 0
2020-01-18 16:16:03 8.5 5.5 65 91 114 h 0
2020-01-18 16:46:15 8.6 5.4 65 92 114 h 0
2020-01-18 17:16:27 8.5 5.5 65 91 114 h 0
2020-01-18 17:46:39 8.2 4.5 66 97 115 H 0
2020-01-18 18:16:40 8.1 4.4 66 96 113 H 0
2020-01-18 18:46:41 8.0 4.4 67 94 111 H 0
2020-01-18 19:16:42 8.0 3.8 66 94 107 H 0
2020-01-18 19:46:43 7.8 4.0 67 93 108 H 0
2020-01-18 20:16:45 7.8 4.3 67 90 106 H 0
2020-01-18 20:46:46 7.9 4.5 67 91 109 H 0
2020-01-18 21:16:47 7.7 4.3 68 91 107 H 0
2020-01-18 21:46:48 8.1 4.6 66 89 107 H 0
2020-01-18 22:16:49 8.2 4.5 66 92 109 H 0
2020-01-18 22:46:50 8.3 4.7 66 91 109 H 0
2020-01-18 23:16:51 9.4 4.5 63 92 106 H 0
2020-01-18 23:46:53 8.8 4.0 65 94 105 H 0
2020-01-19 00:03:18 8.6 4.4 65 92 107 H 0
2020-01-19 00:33:27 8.6 4.5 65 93 109 H 0
2020-01-19 01:03:28 8.5 4.9 65 92 112 H 0
2020-01-19 01:33:29 8.4 4.8 66 95 114 H 0
2020-01-19 02:03:30 8.4 4.8 65 96 116 H 0
2020-01-19 02:33:32 8.4 4.7 65 95 113 H 0
2020-01-19 03:03:33 8.4 4.6 65 96 114 H 0
2020-01-19 03:33:34 8.4 4.2 66 97 112 H 0
2020-01-19 04:03:35 8.4 4.4 66 96 112 H 0
2020-01-19 04:33:36 8.3 4.1 66 98 112 H 0
2020-01-19 05:03:37 8.4 3.9 66 91 103 h 0
2020-01-19 05:33:49 8.4 3.6 66 90 100 h 0
2020-01-19 06:04:01 8.4 3.2 66 91 98 h 0
2020-01-19 06:34:13 8.4 2.8 66 91 95 h 0
2020-01-19 07:04:26 8.4 2.1 66 100 99 H 0
2020-01-19 07:34:27 8.4 2.9 66 98 103 H 0
2020-01-19 08:04:28 8.4 2.4 66 99 100 H 0
2020-01-19 08:34:29 8.4 2.1 66 92 92 t
1
2020-01-19 09:04:41 7.9 2.0 66 92 94 t
1
2020-01-19 09:34:53 7.8 2.1 65 92 96 h 0
2020-01-19 10:05:06 8.4 2.1 64 95 97 H 0
2020-01-19 10:35:07 8.5 3.2 64 91 99 H 0
2020-01-19 11:05:08 8.6 2.8 64 92 98 H 0
2020-01-19 11:35:09 8.6 2.8 64 89 94 T
1
2020-01-19 12:05:10 8.1 2.4 64 91 97 H 0
2020-01-19 12:35:11 8.7 3.1 63 86 95 H 0
2020-01-19 13:05:12 8.7 3.5 63 84 94 T
1
2020-01-19 13:35:14 8.1 3.0 63 84 95 H 0
2020-01-19 14:05:15 8.4 3.9 63 79 92 T
1
2020-01-19 14:35:16 8.0 3.1 63 80 92 T
1
2020-01-19 15:05:17 8.2 2.7 59 82 97 H 0
2020-01-19 15:35:18 9.7 3.1 57 80 91 T
1
2020-01-19 16:05:19 9.7 1.2 55 89 92 T
1
2020-01-19 16:35:20 9.9 0.9 55 90 88 T
1
2020-01-19 17:05:22 9.8 1.4 56 87 90 T
1
2020-01-19 17:35:23 9.7 1.6 56 87 91 T
1
2020-01-19 18:05:24 9.5 1.7 56 85 91 T
1
2020-01-19 18:35:25 9.2 1.4 55 87 93 T
1


2020-01-19 19:43:22 CET